• Join FlightAware (Why Join?)
  • Login
  • US Flag 
07:47AM EDT


 

Airport Tracker/Info


-or-


 

Live Flight TrackerFlight Track Log ✈ TCF3452 ✈ 07-May-2013 ✈ KRDU - KIAD

Flight Track Log - Related Links

Times and Time Zones

All times are in EDT time to prevent confusion due to time zone crossing. See the TCF3452 flight status page for this flight to view local times or setup timezone preferences in your user account.

Time Position Orientation Groundspeed Altitude Reporting Facility
EDT Latitude Longitude Course Direction KTS MPH feet Rate Location/Type
02:46PM 35.8536 -78.8286 226° Southwest 158 182 2,600  Level Washington Center
02:47PM 35.8106 -78.8781 223° Southwest 232 267 5,400 2,700 Climbing Washington Center
02:48PM 35.8022 -78.9519 262° West 280 322 8,100 2,700 Climbing Washington Center
02:49PM 36.2354 -78.6396 19° North  Level FlightAware Approximate
02:49PM 35.8328 -78.9764 327° Northwest 342 394 9,400  Level Washington Center
02:50PM 36.3291 -78.6070 15° North  Level FlightAware Approximate
02:50PM 35.9200 -78.9878 354° North 339 390 11,900  Level Washington Center
02:51PM 36.4238 -78.5798 22° Northeast  Level FlightAware Approximate
02:51PM 35.9847 -78.9136 43° Northeast 287 330 12,000  Level Washington Center
02:52PM 36.0414 -78.8314 50° Northeast 287 330 12,900 1,680 Climbing Washington Center
02:53PM 36.1042 -78.7464 48° Northeast 307 353 15,400 2,220 Climbing Washington Center
02:54PM 36.1669 -78.6536 50° Northeast 334 384 17,400 1,800 Climbing Washington Center
02:55PM 36.2361 -78.5586 48° Northeast 355 409 19,000 780 Climbing Washington Center
02:56PM 36.3008 -78.4683 48° Northeast 361 415 19,000  Level Washington Center
02:57PM 36.3781 -78.3886 40° Northeast 355 409 19,000  Level Washington Center
02:58PM 36.4731 -78.3428 21° North 356 410 19,000  Level Washington Center
02:59PM 36.5700 -78.2972 21° North 356 410 19,000  Level Washington Center
03:00PM 36.6669 -78.2486 22° Northeast 362 417 19,000  Level Washington Center
03:01PM 36.7556 -78.2050 22° Northeast 362 417 19,000  Level Washington Center
03:02PM 36.8631 -78.1542 21° North 386 444 19,000  Level Washington Center
03:03PM 36.9503 -78.0714 37° Northeast 394 453 19,000  Level Washington Center
03:04PM 37.0233 -77.9669 49° Northeast 389 448 19,000  Level Washington Center
03:05PM 37.0983 -77.8678 47° Northeast 389 448 19,000  Level Washington Center
03:06PM 37.1753 -77.7658 47° Northeast 394 453 19,000  Level Washington Center
03:07PM 37.2503 -77.6636 47° Northeast 394 453 19,000  Level Washington Center
03:08PM 37.3250 -77.5611 47° Northeast 389 448 19,000  Level Washington Center
03:09PM 37.3994 -77.4583 48° Northeast 389 448 19,000  Level Washington Center
03:10PM 37.4678 -77.3686 46° Northeast 373 429 19,000 -300 Level Washington Center
03:11PM 37.5539 -77.3181 25° Northeast 341 392 18,500 -780 Descending Washington Center
03:12PM 37.6539 -77.3256 357° North 328 377 17,500 -780 Descending Washington Center
03:13PM 37.7497 -77.3278 359° North 333 383 17,000 -360 Descending Washington Center
03:14PM 37.8458 -77.3328 358° North 338 389 16,800 -600 Descending Washington Center
03:15PM 37.9394 -77.3375 358° North 343 395 15,800 -1,020 Descending Washington Center
03:16PM 38.0311 -77.3394 359° North 343 395 14,800 -1,320 Descending Washington Center
03:17PM 38.1208 -77.3469 356° North 327 376 13,300 -1,500 Descending Washington Center
03:18PM 38.2125 -77.3517 358° North 327 376 11,800 -1,500 Descending Washington Center
03:19PM 38.3000 -77.3564 358° North 327 376 10,300 -900 Descending Washington Center
03:20PM 38.3856 -77.3583 359° North 322 371 10,100 -720 Descending Washington Center
03:21PM 38.4708 -77.3631 358° North 312 359 8,900 -2,040 Descending Washington Center
03:22PM 38.5542 -77.3650 359° North 305 351 6,000 -2,160 Descending Washington Center
03:23PM 38.6333 -77.3667 359° North 289 333 5,000 -960 Descending Potomac TRACON
03:24PM 38.7167 -77.3667 360° North 281 323 4,300 -600 Descending Potomac TRACON
03:25PM 38.8000 -77.3500 North 278 320 3,900 -180 Descending Potomac TRACON
03:26PM 38.8667 -77.3500 360° North 260 299 4,000  Climbing Potomac TRACON
03:27PM 38.9333 -77.3500 360° North 260 299 4,000  Level Potomac TRACON
03:28PM 39.0167 -77.3500 360° North 260 299 4,000 -420 Level Potomac TRACON
03:29PM 39.0833 -77.3500 360° North 258 297 3,200 -660 Descending Potomac TRACON
03:30PM 39.1667 -77.3500 360° North 248 285 2,700 -420 Descending Potomac TRACON
03:31PM 39.2000 -77.4000 311° West 251 289 2,400 -360 Descending Potomac TRACON
03:32PM 39.1667 -77.4333 218° Southwest 189 217 2,000 -240 Descending Potomac TRACON
03:33PM 39.1167 -77.4333 180° South 183 211 2,000  Level Potomac TRACON